sensor_id;sensor_type;location;lat;lon;timestamp;P1;durP1;ratioP1;P2;durP2;ratioP2
10617;SDS011;5356;43.526;26.534;2023-12-20T00:03:01;16.15;;;8.15;;
10617;SDS011;5356;43.526;26.534;2023-12-20T00:05:31;15.73;;;7.53;;
10617;SDS011;5356;43.526;26.534;2023-12-20T00:08:09;19.23;;;7.53;;
10617;SDS011;5356;43.526;26.534;2023-12-20T00:10:37;16.75;;;7.20;;
10617;SDS011;5356;43.526;26.534;2023-12-20T00:13:02;16.40;;;7.72;;
10617;SDS011;5356;43.526;26.534;2023-12-20T00:15:29;16.13;;;7.43;;
10617;SDS011;5356;43.526;26.534;2023-12-20T00:27:26;12.75;;;6.03;;
10617;SDS011;5356;43.526;26.534;2023-12-20T00:29:53;9.50;;;5.13;;
10617;SDS011;5356;43.526;26.534;2023-12-20T00:32:30;7.15;;;4.25;;
10617;SDS011;5356;43.526;26.534;2023-12-20T00:35:11;9.60;;;4.65;;
10617;SDS011;5356;43.526;26.534;2023-12-20T00:40:44;12.50;;;6.57;;
10617;SDS011;5356;43.526;26.534;2023-12-20T00:43:14;20.23;;;9.07;;
10617;SDS011;5356;43.526;26.534;2023-12-20T00:45:40;17.40;;;9.48;;
10617;SDS011;5356;43.526;26.534;2023-12-20T00:48:06;19.80;;;10.02;;
10617;SDS011;5356;43.526;26.534;2023-12-20T00:50:33;12.52;;;6.80;;
10617;SDS011;5356;43.526;26.534;2023-12-20T00:53:04;12.38;;;7.10;;
10617;SDS011;5356;43.526;26.534;2023-12-20T00:55:30;9.45;;;5.82;;
10617;SDS011;5356;43.526;26.534;2023-12-20T01:01:43;8.50;;;4.22;;
10617;SDS011;5356;43.526;26.534;2023-12-20T01:04:14;9.18;;;4.93;;
10617;SDS011;5356;43.526;26.534;2023-12-20T01:06:40;6.57;;;3.90;;
10617;SDS011;5356;43.526;26.534;2023-12-20T01:09:05;104.45;;;14.60;;
10617;SDS011;5356;43.526;26.534;2023-12-20T01:11:31;7.65;;;4.10;;
10617;SDS011;5356;43.526;26.534;2023-12-20T01:13:56;7.93;;;3.78;;
10617;SDS011;5356;43.526;26.534;2023-12-20T01:16:27;7.43;;;3.75;;
10617;SDS011;5356;43.526;26.534;2023-12-20T01:18:52;8.55;;;4.47;;
10617;SDS011;5356;43.526;26.534;2023-12-20T01:21:28;13.05;;;5.95;;
10617;SDS011;5356;43.526;26.534;2023-12-20T01:27:00;15.55;;;8.45;;
10617;SDS011;5356;43.526;26.534;2023-12-20T01:29:25;10.38;;;6.50;;
10617;SDS011;5356;43.526;26.534;2023-12-20T01:31:53;11.63;;;6.70;;
10617;SDS011;5356;43.526;26.534;2023-12-20T01:34:27;8.48;;;4.35;;
10617;SDS011;5356;43.526;26.534;2023-12-20T01:37:48;9.07;;;5.18;;
10617;SDS011;5356;43.526;26.534;2023-12-20T01:46:54;10.13;;;5.55;;
10617;SDS011;5356;43.526;26.534;2023-12-20T01:49:19;9.18;;;5.82;;
10617;SDS011;5356;43.526;26.534;2023-12-20T01:51:46;7.63;;;4.88;;
10617;SDS011;5356;43.526;26.534;2023-12-20T01:54:12;11.70;;;5.45;;
10617;SDS011;5356;43.526;26.534;2023-12-20T01:56:38;8.60;;;5.00;;
10617;SDS011;5356;43.526;26.534;2023-12-20T01:59:05;10.07;;;5.68;;
10617;SDS011;5356;43.526;26.534;2023-12-20T02:01:32;9.57;;;5.28;;
10617;SDS011;5356;43.526;26.534;2023-12-20T02:03:57;12.57;;;5.45;;
10617;SDS011;5356;43.526;26.534;2023-12-20T02:09:17;7.85;;;5.45;;
10617;SDS011;5356;43.526;26.534;2023-12-20T02:11:43;10.13;;;4.88;;
10617;SDS011;5356;43.526;26.534;2023-12-20T02:16:54;52.65;;;23.95;;
10617;SDS011;5356;43.526;26.534;2023-12-20T02:19:33;22.65;;;13.10;;
10617;SDS011;5356;43.526;26.534;2023-12-20T02:22:20;29.73;;;13.98;;
10617;SDS011;5356;43.526;26.534;2023-12-20T02:25:41;50.17;;;18.23;;
10617;SDS011;5356;43.526;26.534;2023-12-20T02:31:01;27.92;;;11.77;;
10617;SDS011;5356;43.526;26.534;2023-12-20T02:33:31;31.17;;;12.73;;
10617;SDS011;5356;43.526;26.534;2023-12-20T02:35:56;45.08;;;18.27;;
10617;SDS011;5356;43.526;26.534;2023-12-20T02:38:29;26.10;;;11.77;;
10617;SDS011;5356;43.526;26.534;2023-12-20T02:40:54;30.02;;;12.52;;
10617;SDS011;5356;43.526;26.534;2023-12-20T02:43:33;11.60;;;7.18;;
10617;SDS011;5356;43.526;26.534;2023-12-20T02:46:07;11.98;;;7.05;;
10617;SDS011;5356;43.526;26.534;2023-12-20T02:48:38;62.05;;;21.83;;
10617;SDS011;5356;43.526;26.534;2023-12-20T02:51:07;12.27;;;7.05;;
10617;SDS011;5356;43.526;26.534;2023-12-20T02:53:32;46.80;;;16.52;;
10617;SDS011;5356;43.526;26.534;2023-12-20T02:55:58;88.47;;;31.35;;
10617;SDS011;5356;43.526;26.534;2023-12-20T02:58:23;30.83;;;11.57;;
10617;SDS011;5356;43.526;26.534;2023-12-20T03:00:49;50.75;;;18.02;;
10617;SDS011;5356;43.526;26.534;2023-12-20T03:03:15;119.72;;;19.00;;
10617;SDS011;5356;43.526;26.534;2023-12-20T03:05:41;14.45;;;5.38;;
10617;SDS011;5356;43.526;26.534;2023-12-20T03:15:52;38.83;;;17.30;;
10617;SDS011;5356;43.526;26.534;2023-12-20T03:18:20;21.85;;;10.13;;
10617;SDS011;5356;43.526;26.534;2023-12-20T03:20:48;21.25;;;9.30;;
10617;SDS011;5356;43.526;26.534;2023-12-20T03:26:16;21.45;;;10.88;;
10617;SDS011;5356;43.526;26.534;2023-12-20T03:28:42;44.70;;;18.23;;
10617;SDS011;5356;43.526;26.534;2023-12-20T03:31:09;101.78;;;17.30;;
10617;SDS011;5356;43.526;26.534;2023-12-20T03:33:34;33.28;;;12.82;;
10617;SDS011;5356;43.526;26.534;2023-12-20T03:38:49;40.00;;;17.00;;
10617;SDS011;5356;43.526;26.534;2023-12-20T03:41:17;32.03;;;14.35;;
10617;SDS011;5356;43.526;26.534;2023-12-20T03:43:55;63.00;;;24.23;;
10617;SDS011;5356;43.526;26.534;2023-12-20T03:51:58;23.23;;;11.13;;
10617;SDS011;5356;43.526;26.534;2023-12-20T03:54:25;22.17;;;10.02;;
10617;SDS011;5356;43.526;26.534;2023-12-20T03:56:51;17.70;;;7.90;;
10617;SDS011;5356;43.526;26.534;2023-12-20T04:01:51;29.33;;;9.77;;
10617;SDS011;5356;43.526;26.534;2023-12-20T04:06:52;14.65;;;8.15;;
10617;SDS011;5356;43.526;26.534;2023-12-20T04:14:42;25.50;;;10.68;;
10617;SDS011;5356;43.526;26.534;2023-12-20T04:17:07;37.65;;;14.20;;
10617;SDS011;5356;43.526;26.534;2023-12-20T04:19:33;29.55;;;12.18;;
10617;SDS011;5356;43.526;26.534;2023-12-20T04:21:58;18.95;;;9.05;;
10617;SDS011;5356;43.526;26.534;2023-12-20T04:24:25;25.73;;;12.43;;
10617;SDS011;5356;43.526;26.534;2023-12-20T04:26:50;43.70;;;18.83;;
10617;SDS011;5356;43.526;26.534;2023-12-20T04:32:41;26.08;;;11.55;;
10617;SDS011;5356;43.526;26.534;2023-12-20T04:35:06;21.35;;;10.63;;
10617;SDS011;5356;43.526;26.534;2023-12-20T04:37:33;113.15;;;42.08;;
10617;SDS011;5356;43.526;26.534;2023-12-20T04:40:01;32.55;;;17.00;;
10617;SDS011;5356;43.526;26.534;2023-12-20T04:42:27;79.60;;;36.28;;
10617;SDS011;5356;43.526;26.534;2023-12-20T04:44:55;104.53;;;40.00;;
10617;SDS011;5356;43.526;26.534;2023-12-20T04:47:21;173.90;;;75.25;;
10617;SDS011;5356;43.526;26.534;2023-12-20T04:52:46;17.08;;;11.15;;
10617;SDS011;5356;43.526;26.534;2023-12-20T04:55:13;14.25;;;9.45;;
10617;SDS011;5356;43.526;26.534;2023-12-20T04:57:40;16.25;;;8.88;;
10617;SDS011;5356;43.526;26.534;2023-12-20T05:00:05;19.52;;;9.98;;
10617;SDS011;5356;43.526;26.534;2023-12-20T05:02:33;21.70;;;13.13;;
10617;SDS011;5356;43.526;26.534;2023-12-20T05:04:59;14.98;;;8.73;;
10617;SDS011;5356;43.526;26.534;2023-12-20T05:07:27;13.95;;;7.93;;
10617;SDS011;5356;43.526;26.534;2023-12-20T05:09:53;13.15;;;7.40;;
10617;SDS011;5356;43.526;26.534;2023-12-20T05:12:19;11.15;;;7.30;;
10617;SDS011;5356;43.526;26.534;2023-12-20T05:14:44;10.30;;;6.35;;
10617;SDS011;5356;43.526;26.534;2023-12-20T05:17:11;13.10;;;8.45;;
10617;SDS011;5356;43.526;26.534;2023-12-20T05:19:36;17.45;;;11.40;;
10617;SDS011;5356;43.526;26.534;2023-12-20T05:22:03;17.02;;;11.15;;
10617;SDS011;5356;43.526;26.534;2023-12-20T05:24:28;24.65;;;13.40;;
10617;SDS011;5356;43.526;26.534;2023-12-20T05:26:54;18.52;;;10.43;;
10617;SDS011;5356;43.526;26.534;2023-12-20T05:29:20;19.00;;;8.93;;
10617;SDS011;5356;43.526;26.534;2023-12-20T05:34:15;13.35;;;8.25;;
10617;SDS011;5356;43.526;26.534;2023-12-20T05:36:41;18.38;;;11.65;;
10617;SDS011;5356;43.526;26.534;2023-12-20T05:39:06;41.97;;;24.23;;
10617;SDS011;5356;43.526;26.534;2023-12-20T05:41:33;58.58;;;28.88;;
10617;SDS011;5356;43.526;26.534;2023-12-20T05:44:00;74.95;;;33.58;;
10617;SDS011;5356;43.526;26.534;2023-12-20T05:46:34;63.28;;;36.22;;
10617;SDS011;5356;43.526;26.534;2023-12-20T05:49:03;35.67;;;20.92;;
10617;SDS011;5356;43.526;26.534;2023-12-20T05:51:48;29.75;;;15.25;;
10617;SDS011;5356;43.526;26.534;2023-12-20T05:54:16;22.20;;;11.27;;
10617;SDS011;5356;43.526;26.534;2023-12-20T05:56:41;16.92;;;9.93;;
10617;SDS011;5356;43.526;26.534;2023-12-20T05:59:16;28.60;;;11.93;;
10617;SDS011;5356;43.526;26.534;2023-12-20T06:01:42;19.08;;;8.70;;
10617;SDS011;5356;43.526;26.534;2023-12-20T06:04:07;18.25;;;7.70;;
10617;SDS011;5356;43.526;26.534;2023-12-20T06:06:33;17.30;;;7.95;;
10617;SDS011;5356;43.526;26.534;2023-12-20T06:09:17;17.88;;;8.43;;
10617;SDS011;5356;43.526;26.534;2023-12-20T06:11:44;15.18;;;8.27;;
10617;SDS011;5356;43.526;26.534;2023-12-20T06:14:10;24.92;;;14.40;;
10617;SDS011;5356;43.526;26.534;2023-12-20T06:16:35;28.38;;;13.95;;
10617;SDS011;5356;43.526;26.534;2023-12-20T06:19:01;48.30;;;19.45;;
10617;SDS011;5356;43.526;26.534;2023-12-20T06:21:36;28.30;;;14.95;;
10617;SDS011;5356;43.526;26.534;2023-12-20T06:24:02;42.85;;;23.70;;
10617;SDS011;5356;43.526;26.534;2023-12-20T06:26:28;39.30;;;21.08;;
10617;SDS011;5356;43.526;26.534;2023-12-20T06:28:53;24.80;;;14.48;;
10617;SDS011;5356;43.526;26.534;2023-12-20T06:31:20;29.95;;;17.40;;
10617;SDS011;5356;43.526;26.534;2023-12-20T06:33:46;47.25;;;25.90;;
10617;SDS011;5356;43.526;26.534;2023-12-20T06:36:12;43.47;;;25.73;;
10617;SDS011;5356;43.526;26.534;2023-12-20T06:38:38;28.15;;;16.17;;
10617;SDS011;5356;43.526;26.534;2023-12-20T06:41:04;25.38;;;13.45;;
10617;SDS011;5356;43.526;26.534;2023-12-20T06:43:30;31.63;;;15.20;;
10617;SDS011;5356;43.526;26.534;2023-12-20T14:31:18;9.68;;;5.90;;
10617;SDS011;5356;43.526;26.534;2023-12-20T14:33:43;19.23;;;7.10;;
10617;SDS011;5356;43.526;26.534;2023-12-20T14:36:08;16.88;;;6.50;;
10617;SDS011;5356;43.526;26.534;2023-12-20T14:38:34;51.40;;;29.73;;
10617;SDS011;5356;43.526;26.534;2023-12-20T14:41:00;24.15;;;13.48;;
10617;SDS011;5356;43.526;26.534;2023-12-20T14:43:28;29.58;;;12.13;;
10617;SDS011;5356;43.526;26.534;2023-12-20T14:45:53;47.42;;;21.67;;
10617;SDS011;5356;43.526;26.534;2023-12-20T14:48:19;71.40;;;31.50;;
10617;SDS011;5356;43.526;26.534;2023-12-20T14:50:46;63.58;;;35.03;;
10617;SDS011;5356;43.526;26.534;2023-12-20T14:53:13;73.43;;;32.78;;
10617;SDS011;5356;43.526;26.534;2023-12-20T14:55:41;52.45;;;29.58;;
10617;SDS011;5356;43.526;26.534;2023-12-20T14:58:07;69.93;;;30.65;;
10617;SDS011;5356;43.526;26.534;2023-12-20T15:00:32;78.72;;;30.65;;
10617;SDS011;5356;43.526;26.534;2023-12-20T15:02:58;64.45;;;28.73;;
10617;SDS011;5356;43.526;26.534;2023-12-20T15:05:24;60.75;;;31.88;;
10617;SDS011;5356;43.526;26.534;2023-12-20T15:07:50;61.20;;;31.67;;
10617;SDS011;5356;43.526;26.534;2023-12-20T15:10:15;81.57;;;40.55;;
10617;SDS011;5356;43.526;26.534;2023-12-20T15:12:42;70.85;;;34.58;;
10617;SDS011;5356;43.526;26.534;2023-12-20T15:15:08;75.57;;;34.10;;
10617;SDS011;5356;43.526;26.534;2023-12-20T15:17:34;55.58;;;31.05;;
10617;SDS011;5356;43.526;26.534;2023-12-20T15:20:01;57.80;;;30.08;;
10617;SDS011;5356;43.526;26.534;2023-12-20T15:22:27;58.78;;;28.38;;
10617;SDS011;5356;43.526;26.534;2023-12-20T15:24:53;46.40;;;24.52;;
10617;SDS011;5356;43.526;26.534;2023-12-20T15:27:19;41.20;;;23.05;;
10617;SDS011;5356;43.526;26.534;2023-12-20T15:29:45;68.22;;;31.00;;
10617;SDS011;5356;43.526;26.534;2023-12-20T15:32:10;72.18;;;37.08;;
10617;SDS011;5356;43.526;26.534;2023-12-20T15:34:36;84.95;;;39.13;;
10617;SDS011;5356;43.526;26.534;2023-12-20T15:37:01;82.13;;;40.15;;
10617;SDS011;5356;43.526;26.534;2023-12-20T15:39:27;71.40;;;36.65;;
10617;SDS011;5356;43.526;26.534;2023-12-20T15:41:52;86.40;;;38.17;;
10617;SDS011;5356;43.526;26.534;2023-12-20T15:44:21;74.25;;;34.28;;
10617;SDS011;5356;43.526;26.534;2023-12-20T15:54:11;54.15;;;26.73;;
10617;SDS011;5356;43.526;26.534;2023-12-20T15:56:37;53.35;;;28.98;;
10617;SDS011;5356;43.526;26.534;2023-12-20T15:59:03;39.05;;;22.80;;
10617;SDS011;5356;43.526;26.534;2023-12-20T16:01:29;32.50;;;18.73;;
10617;SDS011;5356;43.526;26.534;2023-12-20T16:03:55;45.05;;;22.38;;
10617;SDS011;5356;43.526;26.534;2023-12-20T16:11:50;34.75;;;18.75;;
10617;SDS011;5356;43.526;26.534;2023-12-20T16:14:15;42.75;;;22.92;;
10617;SDS011;5356;43.526;26.534;2023-12-20T16:16:45;55.88;;;27.77;;
10617;SDS011;5356;43.526;26.534;2023-12-20T16:19:13;53.47;;;27.80;;
10617;SDS011;5356;43.526;26.534;2023-12-20T16:21:39;49.95;;;25.30;;
10617;SDS011;5356;43.526;26.534;2023-12-20T16:24:05;59.58;;;28.63;;
10617;SDS011;5356;43.526;26.534;2023-12-20T16:26:30;55.65;;;29.23;;
10617;SDS011;5356;43.526;26.534;2023-12-20T16:28:56;62.03;;;28.42;;
10617;SDS011;5356;43.526;26.534;2023-12-20T16:31:21;57.30;;;29.95;;
10617;SDS011;5356;43.526;26.534;2023-12-20T16:33:48;68.53;;;34.35;;
10617;SDS011;5356;43.526;26.534;2023-12-20T16:36:13;72.25;;;32.13;;
10617;SDS011;5356;43.526;26.534;2023-12-20T16:38:38;60.42;;;29.33;;
10617;SDS011;5356;43.526;26.534;2023-12-20T16:41:04;57.28;;;30.05;;
10617;SDS011;5356;43.526;26.534;2023-12-20T16:43:30;67.55;;;33.45;;
10617;SDS011;5356;43.526;26.534;2023-12-20T16:45:59;63.45;;;30.08;;
10617;SDS011;5356;43.526;26.534;2023-12-20T16:48:25;48.33;;;25.50;;
10617;SDS011;5356;43.526;26.534;2023-12-20T16:50:51;41.97;;;24.80;;
10617;SDS011;5356;43.526;26.534;2023-12-20T16:53:16;47.83;;;24.35;;
10617;SDS011;5356;43.526;26.534;2023-12-20T16:55:42;53.90;;;24.73;;
10617;SDS011;5356;43.526;26.534;2023-12-20T16:58:11;48.17;;;26.35;;
10617;SDS011;5356;43.526;26.534;2023-12-20T17:00:37;53.38;;;24.90;;
10617;SDS011;5356;43.526;26.534;2023-12-20T17:03:05;50.70;;;24.90;;
10617;SDS011;5356;43.526;26.534;2023-12-20T17:05:30;48.60;;;25.00;;
10617;SDS011;5356;43.526;26.534;2023-12-20T17:07:56;45.50;;;25.45;;
10617;SDS011;5356;43.526;26.534;2023-12-20T17:10:21;42.80;;;24.77;;
10617;SDS011;5356;43.526;26.534;2023-12-20T17:12:47;46.65;;;26.50;;
10617;SDS011;5356;43.526;26.534;2023-12-20T17:15:12;48.42;;;29.00;;
10617;SDS011;5356;43.526;26.534;2023-12-20T17:17:38;66.90;;;32.03;;
10617;SDS011;5356;43.526;26.534;2023-12-20T17:20:03;64.90;;;32.58;;
10617;SDS011;5356;43.526;26.534;2023-12-20T17:22:29;58.60;;;31.58;;
10617;SDS011;5356;43.526;26.534;2023-12-20T17:24:55;77.07;;;38.22;;
10617;SDS011;5356;43.526;26.534;2023-12-20T17:27:20;94.47;;;41.70;;
10617;SDS011;5356;43.526;26.534;2023-12-20T17:29:46;80.93;;;41.85;;
10617;SDS011;5356;43.526;26.534;2023-12-20T17:32:11;84.68;;;38.67;;
10617;SDS011;5356;43.526;26.534;2023-12-20T17:34:37;65.90;;;35.00;;
10617;SDS011;5356;43.526;26.534;2023-12-20T17:37:02;75.63;;;36.75;;
10617;SDS011;5356;43.526;26.534;2023-12-20T17:39:28;97.53;;;41.65;;
10617;SDS011;5356;43.526;26.534;2023-12-20T17:44:39;80.85;;;39.47;;
10617;SDS011;5356;43.526;26.534;2023-12-20T17:47:05;99.13;;;42.78;;
10617;SDS011;5356;43.526;26.534;2023-12-20T17:49:31;71.57;;;33.55;;
10617;SDS011;5356;43.526;26.534;2023-12-20T17:51:56;49.35;;;22.90;;
10617;SDS011;5356;43.526;26.534;2023-12-20T17:54:22;38.65;;;20.55;;
10617;SDS011;5356;43.526;26.534;2023-12-20T17:56:48;40.58;;;21.25;;
10617;SDS011;5356;43.526;26.534;2023-12-20T17:59:16;48.22;;;21.35;;
10617;SDS011;5356;43.526;26.534;2023-12-20T18:01:41;54.22;;;26.13;;
10617;SDS011;5356;43.526;26.534;2023-12-20T18:04:09;50.35;;;24.90;;
10617;SDS011;5356;43.526;26.534;2023-12-20T18:06:38;54.15;;;27.20;;
10617;SDS011;5356;43.526;26.534;2023-12-20T18:12:41;42.10;;;20.95;;
10617;SDS011;5356;43.526;26.534;2023-12-20T18:15:39;66.45;;;32.53;;
10617;SDS011;5356;43.526;26.534;2023-12-20T18:18:31;52.08;;;29.02;;
10617;SDS011;5356;43.526;26.534;2023-12-20T18:21:17;52.10;;;27.73;;
10617;SDS011;5356;43.526;26.534;2023-12-20T18:23:51;60.72;;;32.75;;
10617;SDS011;5356;43.526;26.534;2023-12-20T18:30:19;48.33;;;27.55;;
10617;SDS011;5356;43.526;26.534;2023-12-20T18:40:27;38.47;;;23.55;;
10617;SDS011;5356;43.526;26.534;2023-12-20T18:55:23;42.63;;;25.38;;
10617;SDS011;5356;43.526;26.534;2023-12-20T19:00:48;45.17;;;24.60;;
10617;SDS011;5356;43.526;26.534;2023-12-20T19:03:55;52.60;;;26.60;;
10617;SDS011;5356;43.526;26.534;2023-12-20T19:06:43;59.75;;;29.88;;
10617;SDS011;5356;43.526;26.534;2023-12-20T19:09:27;56.35;;;27.73;;
10617;SDS011;5356;43.526;26.534;2023-12-20T19:12:42;48.20;;;24.83;;
10617;SDS011;5356;43.526;26.534;2023-12-20T19:15:40;44.85;;;23.83;;
10617;SDS011;5356;43.526;26.534;2023-12-20T19:21:59;39.08;;;22.05;;
10617;SDS011;5356;43.526;26.534;2023-12-20T19:24:51;33.22;;;17.48;;
10617;SDS011;5356;43.526;26.534;2023-12-20T19:27:31;31.05;;;19.65;;
10617;SDS011;5356;43.526;26.534;2023-12-20T19:30:25;30.73;;;20.50;;
10617;SDS011;5356;43.526;26.534;2023-12-20T19:36:56;36.20;;;20.08;;
10617;SDS011;5356;43.526;26.534;2023-12-20T19:39:31;37.95;;;21.42;;
10617;SDS011;5356;43.526;26.534;2023-12-20T19:42:42;37.10;;;21.75;;
10617;SDS011;5356;43.526;26.534;2023-12-20T19:45:55;34.20;;;20.02;;
10617;SDS011;5356;43.526;26.534;2023-12-20T19:48:56;36.72;;;19.40;;
10617;SDS011;5356;43.526;26.534;2023-12-20T19:52:04;32.42;;;17.95;;
10617;SDS011;5356;43.526;26.534;2023-12-20T19:54:45;26.75;;;16.27;;
10617;SDS011;5356;43.526;26.534;2023-12-20T19:57:31;38.42;;;19.88;;
10617;SDS011;5356;43.526;26.534;2023-12-20T20:05:50;42.30;;;23.23;;
10617;SDS011;5356;43.526;26.534;2023-12-20T20:08:39;43.53;;;23.02;;
10617;SDS011;5356;43.526;26.534;2023-12-20T20:11:11;33.75;;;19.70;;
10617;SDS011;5356;43.526;26.534;2023-12-20T20:14:30;40.45;;;18.80;;
10617;SDS011;5356;43.526;26.534;2023-12-20T20:17:22;34.63;;;20.15;;
10617;SDS011;5356;43.526;26.534;2023-12-20T20:27:13;38.55;;;21.20;;
10617;SDS011;5356;43.526;26.534;2023-12-20T20:32:21;28.48;;;16.48;;
10617;SDS011;5356;43.526;26.534;2023-12-20T20:38:10;24.60;;;12.85;;
10617;SDS011;5356;43.526;26.534;2023-12-20T20:44:13;30.60;;;15.45;;
10617;SDS011;5356;43.526;26.534;2023-12-20T20:50:13;29.30;;;15.52;;
10617;SDS011;5356;43.526;26.534;2023-12-20T20:53:04;33.70;;;17.80;;
10617;SDS011;5356;43.526;26.534;2023-12-20T20:56:02;24.98;;;14.00;;
10617;SDS011;5356;43.526;26.534;2023-12-20T20:58:53;21.52;;;13.77;;
10617;SDS011;5356;43.526;26.534;2023-12-20T21:01:19;21.52;;;14.15;;
10617;SDS011;5356;43.526;26.534;2023-12-20T21:03:44;20.65;;;12.48;;
10617;SDS011;5356;43.526;26.534;2023-12-20T21:06:10;23.83;;;12.88;;
10617;SDS011;5356;43.526;26.534;2023-12-20T21:08:36;27.50;;;15.13;;
10617;SDS011;5356;43.526;26.534;2023-12-20T21:11:01;29.80;;;14.70;;
10617;SDS011;5356;43.526;26.534;2023-12-20T21:13:27;24.80;;;13.88;;
10617;SDS011;5356;43.526;26.534;2023-12-20T21:15:54;30.27;;;15.77;;
10617;SDS011;5356;43.526;26.534;2023-12-20T21:18:19;48.63;;;24.00;;
10617;SDS011;5356;43.526;26.534;2023-12-20T21:20:45;61.33;;;28.58;;
10617;SDS011;5356;43.526;26.534;2023-12-20T21:23:12;47.45;;;24.35;;
10617;SDS011;5356;43.526;26.534;2023-12-20T21:25:38;42.70;;;21.88;;
10617;SDS011;5356;43.526;26.534;2023-12-20T21:28:04;38.78;;;19.50;;
10617;SDS011;5356;43.526;26.534;2023-12-20T21:30:30;28.45;;;17.13;;
10617;SDS011;5356;43.526;26.534;2023-12-20T21:33:02;25.02;;;15.48;;
10617;SDS011;5356;43.526;26.534;2023-12-20T21:35:28;22.52;;;12.90;;
10617;SDS011;5356;43.526;26.534;2023-12-20T21:37:53;26.25;;;14.68;;
10617;SDS011;5356;43.526;26.534;2023-12-20T21:40:19;20.15;;;12.20;;
10617;SDS011;5356;43.526;26.534;2023-12-20T21:42:44;21.65;;;12.35;;
10617;SDS011;5356;43.526;26.534;2023-12-20T21:45:11;22.85;;;11.18;;
10617;SDS011;5356;43.526;26.534;2023-12-20T21:47:36;21.98;;;10.98;;
10617;SDS011;5356;43.526;26.534;2023-12-20T21:50:02;25.58;;;10.98;;
10617;SDS011;5356;43.526;26.534;2023-12-20T21:52:28;23.77;;;10.25;;
10617;SDS011;5356;43.526;26.534;2023-12-20T21:55:23;21.33;;;10.65;;
10617;SDS011;5356;43.526;26.534;2023-12-20T21:58:09;21.92;;;11.35;;
10617;SDS011;5356;43.526;26.534;2023-12-20T22:00:50;17.08;;;10.05;;
10617;SDS011;5356;43.526;26.534;2023-12-20T22:03:44;16.38;;;11.15;;
10617;SDS011;5356;43.526;26.534;2023-12-20T22:12:55;15.52;;;9.48;;
10617;SDS011;5356;43.526;26.534;2023-12-20T22:15:33;14.57;;;8.57;;
10617;SDS011;5356;43.526;26.534;2023-12-20T22:17:59;13.98;;;7.80;;
10617;SDS011;5356;43.526;26.534;2023-12-20T22:20:24;20.02;;;10.82;;
10617;SDS011;5356;43.526;26.534;2023-12-20T22:22:50;17.17;;;9.10;;
10617;SDS011;5356;43.526;26.534;2023-12-20T22:25:15;14.60;;;8.25;;
10617;SDS011;5356;43.526;26.534;2023-12-20T22:27:41;11.75;;;7.75;;
10617;SDS011;5356;43.526;26.534;2023-12-20T22:30:07;12.57;;;8.02;;
10617;SDS011;5356;43.526;26.534;2023-12-20T22:32:33;14.02;;;8.05;;
10617;SDS011;5356;43.526;26.534;2023-12-20T22:34:59;14.57;;;8.98;;
10617;SDS011;5356;43.526;26.534;2023-12-20T22:37:24;15.80;;;10.32;;
10617;SDS011;5356;43.526;26.534;2023-12-20T22:39:50;17.23;;;9.05;;
10617;SDS011;5356;43.526;26.534;2023-12-20T22:42:15;17.33;;;10.35;;
10617;SDS011;5356;43.526;26.534;2023-12-20T22:44:42;24.88;;;12.10;;
10617;SDS011;5356;43.526;26.534;2023-12-20T22:47:08;23.23;;;10.93;;
10617;SDS011;5356;43.526;26.534;2023-12-20T22:49:35;24.45;;;11.60;;
10617;SDS011;5356;43.526;26.534;2023-12-20T22:52:01;21.92;;;11.52;;
10617;SDS011;5356;43.526;26.534;2023-12-20T22:54:26;27.77;;;13.82;;
10617;SDS011;5356;43.526;26.534;2023-12-20T22:56:52;25.75;;;13.43;;
10617;SDS011;5356;43.526;26.534;2023-12-20T22:59:19;31.83;;;15.50;;
10617;SDS011;5356;43.526;26.534;2023-12-20T23:01:45;34.95;;;14.73;;
10617;SDS011;5356;43.526;26.534;2023-12-20T23:04:12;28.45;;;12.82;;
10617;SDS011;5356;43.526;26.534;2023-12-20T23:06:38;20.48;;;9.60;;
10617;SDS011;5356;43.526;26.534;2023-12-20T23:09:03;20.60;;;10.27;;
10617;SDS011;5356;43.526;26.534;2023-12-20T23:11:29;20.92;;;10.85;;
10617;SDS011;5356;43.526;26.534;2023-12-20T23:13:54;20.85;;;10.20;;
10617;SDS011;5356;43.526;26.534;2023-12-20T23:16:20;19.48;;;9.75;;
10617;SDS011;5356;43.526;26.534;2023-12-20T23:18:46;18.35;;;9.55;;
10617;SDS011;5356;43.526;26.534;2023-12-20T23:21:13;17.38;;;8.65;;
10617;SDS011;5356;43.526;26.534;2023-12-20T23:23:40;14.20;;;7.35;;
10617;SDS011;5356;43.526;26.534;2023-12-20T23:26:05;17.33;;;7.88;;
10617;SDS011;5356;43.526;26.534;2023-12-20T23:28:30;12.85;;;6.95;;
10617;SDS011;5356;43.526;26.534;2023-12-20T23:30:56;11.30;;;6.88;;
10617;SDS011;5356;43.526;26.534;2023-12-20T23:33:21;17.35;;;8.18;;
10617;SDS011;5356;43.526;26.534;2023-12-20T23:35:48;19.10;;;7.72;;
10617;SDS011;5356;43.526;26.534;2023-12-20T23:38:13;11.70;;;6.75;;
10617;SDS011;5356;43.526;26.534;2023-12-20T23:40:39;11.52;;;6.70;;
10617;SDS011;5356;43.526;26.534;2023-12-20T23:43:05;12.90;;;7.10;;
10617;SDS011;5356;43.526;26.534;2023-12-20T23:45:30;13.38;;;7.82;;
10617;SDS011;5356;43.526;26.534;2023-12-20T23:47:58;15.38;;;7.13;;
10617;SDS011;5356;43.526;26.534;2023-12-20T23:50:23;26.33;;;11.32;;
10617;SDS011;5356;43.526;26.534;2023-12-20T23:52:49;36.25;;;13.30;;
10617;SDS011;5356;43.526;26.534;2023-12-20T23:55:15;23.98;;;10.40;;
10617;SDS011;5356;43.526;26.534;2023-12-20T23:57:41;14.80;;;7.90;;
